Time;durP1;ratioP1;P1;durP2;ratioP2;P2;SDS_P1;SDS_P2;PMS_P1;PMS_P2;Temp;Humidity;BMP_temperature;BMP_pressure;BME280_temperature;BME280_humidity;BME280_pressure;Samples;Min_cycle;Max_cycle;Signal;HPM_P1;HPM_P2
2023/02/06 00:01:29;;;;;;;27.40;21.00;;;4.00;99.90;;;3.67;100.00;99878.03;4964939;28;20130;-67
2023/02/06 00:03:56;;;;;;;20.73;17.15;;;4.10;99.90;;;3.91;100.00;99879.41;4975528;28;20347;-67
2023/02/06 00:06:23;;;;;;;28.20;23.15;;;4.10;99.90;;;3.72;100.00;99870.44;4960631;28;20047;-67
2023/02/06 00:08:50;;;;;;;25.70;19.95;;;4.10;99.90;;;3.90;100.00;99872.50;4962444;28;20063;-67
2023/02/06 00:11:19;;;;;;;24.17;19.63;;;4.10;99.90;;;3.76;100.00;99872.22;4961230;28;20533;-67
2023/02/06 00:13:47;;;;;;;24.70;20.48;;;4.10;99.90;;;3.78;100.00;99885.97;4964222;28;20065;-67
2023/02/06 00:16:26;;;;;;;25.58;20.00;;;4.10;99.90;;;3.77;100.00;99882.53;4964855;28;20507;-67
2023/02/06 00:18:55;;;;;;;21.85;18.73;;;4.10;99.90;;;3.72;100.00;99879.00;4960992;28;20429;-67
2023/02/06 00:21:24;;;;;;;34.10;24.40;;;4.10;99.90;;;3.56;100.00;99882.94;4967709;28;20130;-67
2023/02/06 00:23:54;;;;;;;30.33;23.27;;;4.00;99.90;;;3.52;100.00;99886.25;4965485;28;20118;-67
2023/02/06 00:26:22;;;;;;;31.52;23.27;;;3.90;99.90;;;3.49;100.00;99890.44;4964675;28;20074;-67
2023/02/06 00:28:50;;;;;;;36.45;25.88;;;3.90;99.90;;;3.45;100.00;99896.38;4964626;28;20047;-67
2023/02/06 00:31:17;;;;;;;31.52;24.02;;;3.80;99.90;;;3.59;100.00;99901.81;4963389;28;20437;-67
2023/02/06 00:33:44;;;;;;;32.72;24.42;;;3.90;99.90;;;3.43;100.00;99906.59;4960975;28;20089;-67
2023/02/06 00:36:11;;;;;;;30.10;21.98;;;3.80;99.90;;;3.44;100.00;99902.31;4966838;28;20722;-67
2023/02/06 00:38:38;;;;;;;31.70;22.88;;;3.90;99.90;;;3.50;100.00;99913.59;4963817;28;20047;-67
2023/02/06 00:41:05;;;;;;;33.03;23.13;;;3.90;99.90;;;3.48;100.00;99912.69;4964757;28;20050;-67
2023/02/06 00:43:33;;;;;;;27.92;21.85;;;3.90;99.90;;;3.52;100.00;99909.38;4965648;28;20054;-67
2023/02/06 00:46:00;;;;;;;27.27;21.60;;;3.90;99.90;;;3.48;100.00;99910.13;4964043;28;20157;-67
2023/02/06 00:48:27;;;;;;;25.40;19.23;;;3.80;99.90;;;3.45;100.00;99904.94;4963989;28;20050;-67
2023/02/06 00:50:55;;;;;;;32.03;23.20;;;3.90;99.90;;;3.39;100.00;99907.34;4963260;28;20055;-67
2023/02/06 00:53:22;;;;;;;33.05;24.10;;;3.80;99.90;;;3.40;100.00;99905.63;4961801;28;20585;-67
2023/02/06 00:55:49;;;;;;;23.65;18.23;;;3.80;99.90;;;3.41;100.00;99915.09;4960569;28;20053;-67
2023/02/06 00:58:16;;;;;;;23.55;19.27;;;3.80;99.90;;;3.47;100.00;99920.38;4964548;28;20065;-67
2023/02/06 01:00:43;;;;;;;25.70;19.92;;;3.80;99.90;;;3.43;100.00;99918.56;4960387;28;20055;-67
2023/02/06 01:03:10;;;;;;;22.95;17.60;;;3.70;99.90;;;3.51;100.00;99924.72;4962623;28;20047;-67
2023/02/06 01:05:37;;;;;;;20.95;16.63;;;3.80;99.90;;;3.48;100.00;99927.22;4963203;28;20486;-67
2023/02/06 01:08:05;;;;;;;24.10;19.48;;;3.80;99.90;;;3.40;100.00;99921.94;4961013;28;20062;-67
2023/02/06 01:10:32;;;;;;;24.00;18.55;;;3.70;99.90;;;3.29;100.00;99919.09;4964921;28;20058;-67
2023/02/06 01:12:59;;;;;;;21.17;16.88;;;3.70;99.90;;;3.39;100.00;99914.19;4960654;28;20051;-67
2023/02/06 01:15:27;;;;;;;24.35;18.60;;;3.80;99.90;;;3.29;100.00;99915.66;4962993;28;20051;-67
2023/02/06 01:17:54;;;;;;;22.40;18.42;;;3.70;99.90;;;3.34;100.00;99921.78;4964433;28;20062;-67
2023/02/06 01:20:22;;;;;;;26.00;19.52;;;3.70;99.90;;;3.25;100.00;99916.41;4964407;28;20043;-68
2023/02/06 01:22:49;;;;;;;22.55;16.45;;;3.70;99.90;;;3.25;100.00;99912.16;4957235;28;20074;-67
2023/02/06 01:25:17;;;;;;;22.25;15.65;;;3.70;99.90;;;3.19;100.00;99906.00;4962919;28;20070;-68
2023/02/06 01:27:44;;;;;;;16.45;12.80;;;3.60;99.90;;;3.26;100.00;99913.00;4963029;28;20043;-67
2023/02/06 01:30:12;;;;;;;17.33;13.15;;;3.60;99.90;;;3.17;100.00;99912.78;4962346;28;20129;-67
2023/02/06 01:32:41;;;;;;;18.58;13.50;;;3.60;99.90;;;3.26;100.00;99915.56;4964635;28;20054;-67
2023/02/06 01:35:10;;;;;;;12.90;10.20;;;3.60;99.90;;;3.23;100.00;99906.09;4962029;28;20489;-67
2023/02/06 01:37:40;;;;;;;19.25;14.73;;;3.60;99.90;;;3.14;100.00;99909.31;4975625;28;20418;-67
2023/02/06 01:40:12;;;;;;;16.77;12.82;;;3.50;99.90;;;3.04;100.00;99903.94;4960187;28;20047;-67
2023/02/06 01:42:40;;;;;;;19.10;13.98;;;3.50;99.90;;;3.11;100.00;99901.53;4960556;28;20055;-67
2023/02/06 01:45:31;;;;;;;16.33;12.00;;;3.50;99.90;;;3.23;100.00;99907.81;4960375;28;20050;-67
2023/02/06 01:48:04;;;;;;;16.52;12.05;;;3.50;99.90;;;3.16;100.00;99895.66;4960672;28;20046;-67
2023/02/06 01:50:34;;;;;;;15.60;12.40;;;3.50;99.90;;;3.12;100.00;99895.59;4959335;28;20074;-67
2023/02/06 01:53:03;;;;;;;15.27;12.02;;;3.50;99.90;;;3.12;100.00;99897.28;4961657;28;20050;-68
2023/02/06 01:55:32;;;;;;;17.60;11.30;;;3.50;99.90;;;3.11;100.00;99888.72;4959429;28;20106;-67
2023/02/06 01:58:01;;;;;;;14.88;10.65;;;3.50;99.90;;;3.27;100.00;99896.78;4958690;28;20065;-67
2023/02/06 02:00:28;;;;;;;10.25;8.23;;;3.60;99.90;;;3.31;100.00;99886.63;4962803;28;20086;-67
2023/02/06 02:02:55;;;;;;;12.05;8.93;;;3.60;99.90;;;3.34;100.00;99885.84;4960434;28;20086;-67
2023/02/06 02:05:22;;;;;;;11.43;8.95;;;3.60;99.90;;;3.25;100.00;99883.06;4960990;28;20055;-67
2023/02/06 02:08:14;;;;;;;10.63;8.07;;;3.60;99.90;;;3.17;100.00;99880.31;4960757;28;20683;-67
2023/02/06 02:10:41;;;;;;;11.75;8.32;;;3.50;99.90;;;3.18;100.00;99874.34;4953416;28;20051;-67
2023/02/06 02:13:08;;;;;;;10.63;8.18;;;3.50;99.90;;;3.13;100.00;99875.94;4975316;28;20050;-67
2023/02/06 02:16:19;;;;;;;11.30;8.30;;;3.50;99.90;;;3.13;100.00;99860.53;4963411;28;20712;-67
2023/02/06 02:19:29;;;;;;;9.60;7.30;;;3.50;99.90;;;3.16;100.00;99860.59;4952435;28;20165;-67
2023/02/06 02:22:45;;;;;;;10.40;7.47;;;3.60;99.90;;;3.16;100.00;99847.75;4961028;28;20039;-67
2023/02/06 02:25:36;;;;;;;11.10;8.48;;;3.50;99.90;;;2.93;100.00;99840.38;4966934;28;20065;-67
2023/02/06 02:28:50;;;;;;;13.13;9.30;;;3.40;99.90;;;2.95;100.00;99844.69;4954971;28;20055;-67
2023/02/06 02:31:54;;;;;;;10.35;7.75;;;3.40;99.90;;;2.97;100.00;99845.59;4959847;28;20232;-67
2023/02/06 02:34:59;;;;;;;;;;;3.40;99.90;;;3.01;100.00;99839.69;4961235;28;20051;-67
2023/02/06 02:37:52;;;;;;;9.23;7.05;;;3.40;99.90;;;3.05;100.00;99837.25;4962086;28;19926;-67
2023/02/06 02:40:55;;;;;;;;;;;3.40;99.90;;;2.94;100.00;99836.09;4958916;28;20055;-67
2023/02/06 02:43:39;;;;;;;11.60;8.07;;;3.40;99.90;;;3.05;100.00;99832.09;4964622;28;19923;-67
2023/02/06 02:46:30;;;;;;;12.98;7.85;;;3.40;99.90;;;3.03;100.00;99827.78;4972891;28;20058;-67
2023/02/06 02:49:12;;;;;;;10.52;7.20;;;3.40;99.90;;;3.00;100.00;99838.84;4964898;28;20047;-67
2023/02/06 02:51:41;;;;;;;11.07;7.23;;;3.40;99.90;;;3.01;100.00;99839.69;4957843;28;20047;-67
2023/02/06 02:54:08;;;;;;;10.23;7.13;;;3.40;99.90;;;2.85;100.00;99828.19;4976192;28;20051;-67
2023/02/06 02:56:35;;;;;;;10.40;7.03;;;3.30;99.90;;;2.70;100.00;99821.00;4959989;28;20070;-67
2023/02/06 02:59:07;;;;;;;11.77;7.35;;;3.20;99.90;;;2.62;100.00;99823.38;4960126;28;20406;-67
2023/02/06 03:01:49;;;;;;;10.27;7.60;;;3.10;99.90;;;2.63;100.00;99822.53;4965094;28;20054;-67
2023/02/06 03:04:23;;;;;;;11.50;8.30;;;3.10;99.90;;;2.60;100.00;99821.59;4957039;28;20086;-67
2023/02/06 03:07:18;;;;;;;7.82;6.38;;;3.10;99.90;;;2.71;100.00;99828.75;4957034;28;20139;-67
2023/02/06 03:10:01;;;;;;;9.85;7.03;;;3.10;99.90;;;2.68;100.00;99832.91;4963306;28;20044;-67
2023/02/06 03:13:09;;;;;;;9.13;6.25;;;3.10;99.90;;;2.79;100.00;99846.88;4965105;28;20042;-67
2023/02/06 03:16:12;;;;;;;9.82;7.30;;;3.20;99.90;;;2.84;100.00;99837.59;4962490;28;20063;-67
2023/02/06 03:18:47;;;;;;;8.37;5.77;;;3.20;99.90;;;2.93;100.00;99836.97;4968592;28;20053;-67
2023/02/06 03:21:18;;;;;;;11.15;7.75;;;3.30;99.90;;;2.90;100.00;99839.47;4965002;28;20054;-67
2023/02/06 03:23:49;;;;;;;9.68;6.60;;;3.30;99.90;;;2.84;100.00;99835.03;4962022;28;20074;-67
2023/02/06 03:26:21;;;;;;;8.95;6.63;;;3.30;99.90;;;2.81;100.00;99834.97;4966829;28;20051;-67
2023/02/06 03:28:52;;;;;;;7.55;5.50;;;3.20;99.90;;;2.72;100.00;99837.31;4966244;28;20587;-67
2023/02/06 03:31:35;;;;;;;8.40;4.90;;;3.30;99.90;;;2.60;100.00;99836.97;4977568;28;20050;-67
2023/02/06 03:34:44;;;;;;;9.18;6.38;;;3.10;99.90;;;2.49;100.00;99832.44;4966405;28;20070;-67
2023/02/06 03:37:11;;;;;;;8.48;5.45;;;3.10;99.90;;;2.57;100.00;99824.94;4967417;28;20047;-67
2023/02/06 03:39:39;;;;;;;6.95;4.85;;;3.00;99.90;;;2.49;100.00;99826.47;4963842;28;20514;-67
2023/02/06 03:42:11;;;;;;;6.65;4.22;;;3.00;99.90;;;2.34;100.00;99829.47;4951861;28;20889;-67
2023/02/06 03:44:42;;;;;;;7.97;4.97;;;2.90;99.90;;;2.39;100.00;99835.59;4963686;28;20070;-67
2023/02/06 03:47:10;;;;;;;5.55;3.28;;;2.90;99.90;;;2.35;100.00;99831.22;4966362;28;20054;-67
2023/02/06 03:49:40;;;;;;;6.80;4.40;;;2.90;99.90;;;2.31;100.00;99826.84;4961754;28;20778;-67
2023/02/06 03:52:12;;;;;;;8.07;4.22;;;2.80;99.90;;;2.30;100.00;99814.84;4976198;28;20062;-67
2023/02/06 03:54:47;;;;;;;6.43;4.15;;;2.80;99.90;;;2.34;100.00;99811.53;4968070;28;20054;-67
2023/02/06 03:57:18;;;;;;;6.20;4.28;;;2.80;99.90;;;2.37;100.00;99808.19;4964290;28;20490;-67
2023/02/06 03:59:45;;;;;;;7.18;4.72;;;2.80;99.90;;;2.35;100.00;99804.72;4965524;28;20130;-67
2023/02/06 04:02:14;;;;;;;7.90;4.45;;;2.80;99.90;;;2.44;100.00;99805.84;4964220;28;20051;-67
2023/02/06 04:04:43;;;;;;;7.25;4.50;;;2.80;99.90;;;2.29;100.00;99792.63;4964000;28;20046;-67
2023/02/06 04:07:19;;;;;;;7.78;4.88;;;2.70;99.90;;;2.29;100.00;99792.63;4963583;28;20047;-67
2023/02/06 04:09:46;;;;;;;8.23;5.57;;;2.80;99.90;;;2.21;100.00;99794.09;4977803;28;20498;-66
2023/02/06 04:12:14;;;;;;;8.27;5.35;;;2.70;99.90;;;2.31;100.00;99793.53;4964087;28;20062;-67
2023/02/06 04:14:42;;;;;;;7.68;4.53;;;2.70;99.90;;;2.26;100.00;99798.53;4963243;28;20055;-67
2023/02/06 04:17:10;;;;;;;8.38;5.43;;;2.70;99.90;;;2.37;100.00;99798.78;4963131;28;20174;-67
2023/02/06 04:19:38;;;;;;;8.30;4.80;;;2.70;99.90;;;2.35;100.00;99812.41;4965125;28;20608;-67
2023/02/06 04:22:07;;;;;;;8.18;5.65;;;2.70;99.90;;;2.27;100.00;99807.94;4975238;28;20043;-67
2023/02/06 04:24:34;;;;;;;8.15;5.50;;;2.70;99.90;;;2.34;100.00;99803.84;4978306;28;20067;-67
2023/02/06 04:27:01;;;;;;;8.10;4.85;;;2.80;99.90;;;2.42;100.00;99806.63;4960455;28;20058;-67
2023/02/06 04:29:28;;;;;;;7.47;4.82;;;2.80;99.90;;;2.43;100.00;99803.22;4962696;28;20059;-67
2023/02/06 04:32:00;;;;;;;7.50;4.70;;;2.90;99.90;;;2.42;100.00;99798.94;4964497;28;20047;-67
2023/02/06 04:34:28;;;;;;;7.00;4.57;;;2.90;99.90;;;2.35;100.00;99795.34;4960665;28;20067;-66
2023/02/06 04:36:56;;;;;;;8.35;5.63;;;2.90;99.90;;;2.28;100.00;99796.88;4965337;28;20093;-67
2023/02/06 04:39:24;;;;;;;7.63;4.90;;;2.80;99.90;;;2.41;100.00;99797.19;4963401;28;20145;-67
2023/02/06 04:41:51;;;;;;;8.65;5.78;;;2.80;99.90;;;2.29;100.00;99793.47;4964058;28;20053;-67
2023/02/06 04:44:18;;;;;;;9.82;5.50;;;2.80;99.90;;;2.29;100.00;99790.06;4977552;28;20064;-67
2023/02/06 04:46:46;;;;;;;7.20;4.95;;;2.70;99.90;;;2.45;100.00;99792.19;4960097;28;20051;-67
2023/02/06 04:49:14;;;;;;;6.07;3.67;;;2.80;99.90;;;2.49;100.00;99796.56;4958257;28;20050;-66
2023/02/06 04:51:42;;;;;;;8.07;5.45;;;2.90;99.90;;;2.41;100.00;99800.59;4959858;28;20057;-67
2023/02/06 04:54:12;;;;;;;8.93;5.60;;;2.90;99.90;;;2.36;100.00;99797.06;4959653;28;20050;-67
2023/02/06 04:56:40;;;;;;;9.05;6.03;;;2.80;99.90;;;2.20;100.00;99797.50;4965255;28;20051;-67
2023/02/06 04:59:06;;;;;;;8.07;4.90;;;2.80;99.90;;;2.28;100.00;99796.00;4960546;28;20053;-67
2023/02/06 05:01:34;;;;;;;8.95;5.25;;;2.80;99.90;;;2.35;100.00;99803.03;4961712;28;20462;-67
2023/02/06 05:04:01;;;;;;;9.00;5.43;;;2.80;99.90;;;2.37;100.00;99808.19;4973260;28;20141;-67
2023/02/06 05:06:29;;;;;;;9.60;6.13;;;2.80;99.90;;;2.33;100.00;99808.91;4959697;28;20138;-67
2023/02/06 05:08:58;;;;;;;9.45;6.13;;;2.80;99.90;;;2.31;100.00;99814.03;4962669;28;20058;-67
2023/02/06 05:11:26;;;;;;;9.40;5.70;;;2.70;99.90;;;2.32;100.00;99814.88;4961773;28;20061;-67
2023/02/06 05:13:53;;;;;;;9.43;5.70;;;2.80;99.90;;;2.24;100.00;99819.81;4967920;28;20433;-67
2023/02/06 05:16:19;;;;;;;7.03;5.38;;;2.80;99.90;;;2.25;100.00;99817.28;4963501;28;20051;-67
2023/02/06 05:18:51;;;;;;;8.27;5.70;;;2.70;99.90;;;2.29;100.00;99815.69;4959264;28;20050;-67
2023/02/06 05:21:18;;;;;;;8.30;4.93;;;2.70;99.90;;;2.29;100.00;99810.56;4959572;28;20051;-67
2023/02/06 05:23:45;;;;;;;7.30;4.88;;;2.70;99.90;;;2.33;100.00;99817.50;4958404;28;20363;-67
2023/02/06 05:26:12;;;;;;;10.40;5.97;;;2.80;99.90;;;2.19;100.00;99819.69;4974155;28;20051;-67
2023/02/06 05:28:39;;;;;;;8.88;6.22;;;2.70;99.90;;;2.14;100.00;99812.69;4972498;28;20478;-67
2023/02/06 05:31:06;;;;;;;9.00;5.60;;;2.60;99.90;;;2.29;100.00;99813.97;4961368;28;20071;-67
2023/02/06 05:33:34;;;;;;;12.18;6.72;;;2.70;99.90;;;2.28;100.00;99813.94;4961340;28;20652;-67
2023/02/06 05:36:06;;;;;;;12.63;6.88;;;2.70;99.90;;;2.30;100.00;99813.16;4960199;28;20058;-67
2023/02/06 05:38:33;;;;;;;10.52;6.93;;;2.70;99.90;;;2.39;100.00;99817.63;4959339;28;20076;-67
2023/02/06 05:41:00;;;;;;;10.98;7.00;;;2.80;99.90;;;2.35;100.00;99825.22;4962407;28;20046;-67
2023/02/06 05:43:27;;;;;;;11.75;6.78;;;2.80;99.90;;;2.29;100.00;99821.66;4959989;28;20061;-67
2023/02/06 05:45:54;;;;;;;8.60;5.60;;;2.80;99.90;;;2.48;100.00;99824.72;4956803;28;20055;-67
2023/02/06 05:48:21;;;;;;;12.50;8.57;;;2.90;99.90;;;2.22;100.00;99824.03;4965297;28;20044;-67
2023/02/06 05:50:49;;;;;;;11.43;7.78;;;2.80;99.90;;;2.28;100.00;99824.19;4961931;28;20417;-67
2023/02/06 05:53:17;;;;;;;11.38;7.55;;;2.80;99.90;;;2.12;100.00;99822.03;4961772;28;20051;-67
2023/02/06 05:55:44;;;;;;;11.52;8.25;;;2.70;99.90;;;2.12;100.00;99829.72;4958177;28;20591;-67
2023/02/06 05:58:11;;;;;;;10.15;6.82;;;2.70;99.90;;;2.11;100.00;99828.84;4961306;28;20059;-67
2023/02/06 06:00:38;;;;;;;8.73;6.25;;;2.70;99.90;;;2.24;100.00;99830.06;4963263;28;20054;-67
2023/02/06 06:03:05;;;;;;;7.38;5.38;;;2.70;99.90;;;2.17;100.00;99836.72;4959042;28;20065;-67
2023/02/06 06:05:32;;;;;;;9.82;6.07;;;2.80;99.90;;;2.16;100.00;99823.84;4959675;28;20054;-67
2023/02/06 06:07:59;;;;;;;7.95;5.72;;;2.80;99.90;;;2.18;100.00;99829.91;4961079;28;20094;-67
2023/02/06 06:10:27;;;;;;;7.70;5.53;;;2.70;99.90;;;2.23;100.00;99828.31;4959736;28;20058;-69
2023/02/06 06:12:54;;;;;;;8.93;5.45;;;2.70;99.90;;;2.31;100.00;99831.97;4955676;28;20061;-67
2023/02/06 06:15:21;;;;;;;8.77;5.38;;;2.70;99.90;;;2.11;100.00;99821.16;4960791;28;20054;-67
2023/02/06 06:17:48;;;;;;;10.10;6.72;;;2.60;99.90;;;2.01;100.00;99832.00;4958387;28;20058;-67
2023/02/06 06:20:15;;;;;;;7.47;4.55;;;2.50;99.90;;;2.20;100.00;99839.34;4960188;28;20142;-67
2023/02/06 06:22:42;;;;;;;7.95;5.45;;;2.60;99.90;;;2.28;100.00;99822.50;4961011;28;20469;-67
2023/02/06 06:25:09;;;;;;;8.52;4.88;;;2.70;99.90;;;2.42;100.00;99822.00;4958657;28;20079;-67
2023/02/06 06:27:36;;;;;;;9.40;5.90;;;2.70;99.90;;;2.22;100.00;99821.47;4960796;28;20045;-67
2023/02/06 06:30:08;;;;;;;6.97;4.97;;;2.70;99.90;;;2.02;100.00;99824.34;4960488;28;20149;-67
2023/02/06 06:32:35;;;;;;;12.13;5.55;;;2.60;99.90;;;1.96;100.00;99816.50;4958046;28;20055;-67
2023/02/06 06:35:03;;;;;;;9.95;6.13;;;2.60;99.90;;;1.99;100.00;99818.28;4954616;28;20507;-67
2023/02/06 06:37:30;;;;;;;9.82;5.50;;;2.50;99.90;;;2.02;100.00;99828.59;4957952;28;20050;-67
2023/02/06 06:39:57;;;;;;;9.35;6.75;;;2.50;99.90;;;1.96;100.00;99826.75;4962309;28;20138;-68
2023/02/06 06:42:24;;;;;;;10.05;6.63;;;2.40;99.90;;;1.92;100.00;99824.06;4960058;28;20054;-67
2023/02/06 06:44:51;;;;;;;7.40;5.20;;;2.40;99.90;;;1.93;100.00;99821.53;4959240;28;20043;-67
2023/02/06 06:47:18;;;;;;;8.32;5.60;;;2.40;99.90;;;2.04;100.00;99824.41;4955030;28;20206;-67
2023/02/06 06:49:45;;;;;;;7.75;5.18;;;2.50;99.90;;;2.04;100.00;99834.66;4956827;28;20059;-67
2023/02/06 06:52:12;;;;;;;10.10;6.22;;;2.50;99.90;;;1.97;100.00;99835.31;4959172;28;20062;-67
2023/02/06 06:54:50;;;;;;;8.57;5.53;;;2.60;99.90;;;1.95;100.00;99831.81;4956777;28;20465;-67
2023/02/06 06:57:19;;;;;;;10.57;5.80;;;2.60;99.90;;;2.09;100.00;99833.06;4960409;28;20150;-67
2023/02/06 06:59:46;;;;;;;8.68;5.53;;;2.60;99.90;;;2.06;100.00;99827.88;4974696;28;20058;-67
2023/02/06 07:02:13;;;;;;;8.05;5.32;;;2.60;99.90;;;2.13;100.00;99834.91;4961997;28;20047;-67
2023/02/06 07:04:41;;;;;;;9.10;5.78;;;2.60;99.90;;;2.37;100.00;99831.25;4958245;28;20121;-67
2023/02/06 07:07:08;;;;;;;7.43;4.97;;;2.60;99.90;;;2.32;100.00;99845.66;4958316;28;20127;-67
2023/02/06 07:09:35;;;;;;;6.50;4.18;;;2.70;99.90;;;2.18;100.00;99847.84;4959258;28;20051;-67
2023/02/06 07:12:02;;;;;;;8.70;5.38;;;2.70;99.90;;;2.02;100.00;99856.78;4954572;28;20047;-67
2023/02/06 07:14:33;;;;;;;9.73;5.80;;;2.70;99.90;;;1.97;100.00;99832.75;4958612;28;20234;-67
2023/02/06 07:17:00;;;;;;;8.73;5.45;;;2.70;99.90;;;2.12;100.00;99837.41;4957931;28;20057;-67
2023/02/06 07:19:27;;;;;;;9.10;5.60;;;2.70;99.90;;;2.19;100.00;99836.75;4958969;28;20054;-67
2023/02/06 07:21:54;;;;;;;10.45;6.88;;;2.70;99.90;;;2.05;100.00;99831.25;4956955;28;20142;-67
2023/02/06 07:24:23;;;;;;;10.55;6.38;;;2.70;99.90;;;2.20;100.00;99831.66;4958263;28;20565;-67
2023/02/06 07:26:50;;;;;;;9.98;7.03;;;2.70;99.90;;;2.12;100.00;99832.28;4956574;28;20825;-68
2023/02/06 07:29:17;;;;;;;10.45;7.38;;;2.70;99.90;;;2.30;100.00;99833.66;4958761;28;20057;-67
2023/02/06 07:31:44;;;;;;;10.13;6.60;;;2.70;99.90;;;1.98;100.00;99837.03;4958013;28;20051;-67
2023/02/06 07:34:11;;;;;;;11.55;7.13;;;2.70;99.90;;;2.22;100.00;99831.72;4956742;28;20047;-67
2023/02/06 07:36:38;;;;;;;11.15;8.07;;;2.70;99.90;;;2.12;100.00;99837.41;4958571;28;20059;-67
2023/02/06 07:39:05;;;;;;;13.98;8.48;;;2.60;99.90;;;2.08;100.00;99826.22;4958833;28;20446;-67
2023/02/06 07:41:33;;;;;;;10.30;7.13;;;2.60;99.90;;;2.21;100.00;99835.09;4955378;28;20502;-67
2023/02/06 07:44:00;;;;;;;12.50;7.60;;;2.70;99.90;;;2.21;100.00;99835.09;4961059;28;20061;-67
2023/02/06 07:46:27;;;;;;;13.18;7.90;;;2.60;99.90;;;2.01;100.00;99830.31;4958942;28;20121;-67
2023/02/06 07:48:55;;;;;;;13.50;9.05;;;2.60;99.90;;;1.85;100.00;99846.06;4958029;28;20054;-67
2023/02/06 07:51:22;;;;;;;14.20;8.65;;;2.50;99.90;;;1.96;100.00;99852.38;4958306;28;20054;-67
2023/02/06 07:53:52;;;;;;;13.93;9.23;;;2.40;99.90;;;2.05;100.00;99859.41;4957943;28;20055;-67
2023/02/06 07:56:22;;;;;;;11.90;8.70;;;2.40;99.90;;;1.90;100.00;99857.31;4960630;28;20063;-68
2023/02/06 07:58:51;;;;;;;12.30;8.63;;;2.40;99.90;;;1.85;100.00;99849.50;4962460;28;20054;-67
2023/02/06 08:01:22;;;;;;;11.98;9.02;;;2.40;99.90;;;1.83;100.00;99845.16;4967259;28;20082;-68
2023/02/06 08:03:53;;;;;;;12.65;8.95;;;2.40;99.90;;;1.92;100.00;99847.97;4964331;28;20508;-67
2023/02/06 08:06:22;;;;;;;12.73;7.93;;;2.50;99.90;;;1.91;100.00;99847.94;4965854;28;20047;-68
2023/02/06 08:08:50;;;;;;;10.15;7.82;;;2.50;99.90;;;1.94;100.00;99858.25;4974196;28;20073;-68
2023/02/06 08:11:19;;;;;;;11.05;7.55;;;2.50;99.90;;;2.15;100.00;99850.31;4963903;28;20637;-68
2023/02/06 08:13:47;;;;;;;10.55;7.18;;;2.60;99.90;;;2.06;100.00;99853.50;4974824;28;20125;-68
2023/02/06 08:16:21;;;;;;;11.23;8.25;;;2.60;99.90;;;1.96;100.00;99854.94;4959317;28;20162;-68
2023/02/06 08:18:48;;;;;;;13.27;8.63;;;2.50;99.90;;;1.83;100.00;99850.28;4966825;28;20077;-67
2023/02/06 08:21:22;;;;;;;12.18;8.55;;;2.50;99.90;;;1.93;100.00;99843.72;4978173;28;20134;-67
2023/02/06 08:23:58;;;;;;;10.93;6.72;;;2.50;99.90;;;2.00;100.00;99846.47;4959501;28;20069;-67
2023/02/06 08:26:27;;;;;;;10.82;7.60;;;2.50;99.90;;;1.87;100.00;99857.19;4961593;28;20051;-68
2023/02/06 08:28:57;;;;;;;12.20;8.07;;;2.40;99.90;;;1.82;100.00;99862.19;4963480;28;20046;-67
2023/02/06 08:31:33;;;;;;;15.00;7.68;;;2.40;99.90;;;1.85;100.00;99854.63;4949258;28;20055;-67
2023/02/06 08:34:00;;;;;;;10.38;6.97;;;2.30;99.90;;;1.98;100.00;99855.81;4959829;28;20054;-67
2023/02/06 08:36:31;;;;;;;11.52;7.43;;;2.50;99.90;;;2.05;100.00;99852.63;4958771;28;20051;-67
2023/02/06 08:39:00;;;;;;;11.45;6.90;;;2.50;99.90;;;2.21;100.00;99858.16;4959327;28;20050;-67
2023/02/06 08:41:31;;;;;;;11.27;7.80;;;2.60;99.90;;;2.20;100.00;99859.84;4960089;28;20429;-67
2023/02/06 08:44:01;;;;;;;8.95;6.47;;;2.60;99.90;;;2.35;100.00;99854.28;4961804;28;20050;-67
2023/02/06 08:46:30;;;;;;;11.20;6.97;;;2.70;99.90;;;2.29;100.00;99847.28;4976147;28;20054;-67
2023/02/06 08:49:05;;;;;;;10.98;7.15;;;2.80;99.90;;;2.29;100.00;99849.84;4963882;28;20066;-67
2023/02/06 08:51:34;;;;;;;12.10;8.82;;;2.80;99.90;;;2.08;100.00;99846.72;4960800;28;20046;-67
2023/02/06 08:54:05;;;;;;;12.35;8.25;;;2.70;99.90;;;2.36;100.00;99850.03;4956351;28;20047;-67
2023/02/06 08:56:34;;;;;;;10.48;7.53;;;2.90;99.90;;;2.27;100.00;99838.69;4959272;28;20505;-67
2023/02/06 08:59:02;;;;;;;10.27;7.35;;;2.90;99.90;;;2.21;100.00;99841.13;4961103;28;20043;-67
2023/02/06 09:01:32;;;;;;;14.48;9.07;;;2.90;99.90;;;2.17;100.00;99834.16;4972479;28;20064;-67
2023/02/06 09:04:05;;;;;;;14.50;9.30;;;2.90;99.90;;;2.25;100.00;99839.47;4960045;28;20137;-68
2023/02/06 09:06:35;;;;;;;11.80;8.55;;;2.90;99.90;;;2.38;100.00;99839.00;4963503;28;20043;-67
2023/02/06 09:09:04;;;;;;;12.63;7.90;;;3.00;99.90;;;2.55;100.00;99836.00;4961005;28;20043;-67
2023/02/06 09:11:31;;;;;;;12.00;9.25;;;3.20;99.90;;;2.65;100.00;99841.41;4960170;28;20051;-67
2023/02/06 09:14:01;;;;;;;11.70;8.75;;;3.30;99.90;;;2.68;100.00;99841.47;4960490;28;20059;-67
2023/02/06 09:16:31;;;;;;;12.00;7.88;;;3.30;99.90;;;2.56;100.00;99833.47;4964317;28;20058;-67
2023/02/06 09:19:00;;;;;;;11.63;7.82;;;3.30;99.90;;;2.53;100.00;99835.09;4958675;28;20153;-67
2023/02/06 09:21:31;;;;;;;10.30;7.63;;;3.20;99.90;;;2.76;100.00;99839.13;4957893;28;20056;-67
2023/02/06 09:24:05;;;;;;;10.48;7.50;;;3.30;99.90;;;2.87;100.00;99832.56;4959957;28;20059;-68
2023/02/06 09:26:42;;;;;;;11.15;7.03;;;3.40;99.90;;;2.99;100.00;99819.16;4961503;28;20047;-67
2023/02/06 09:29:30;;;;;;;12.70;7.90;;;3.50;99.90;;;2.86;100.00;99822.25;4959271;28;20047;-67
2023/02/06 09:31:58;;;;;;;12.18;7.00;;;3.50;99.90;;;2.68;100.00;99826.09;4957246;28;20125;-67
2023/02/06 09:34:26;;;;;;;10.15;7.18;;;3.50;99.90;;;2.98;100.00;99824.25;4957329;28;20764;-67
2023/02/06 09:36:55;;;;;;;10.65;6.45;;;3.60;99.90;;;2.75;100.00;99819.41;4964286;28;20050;-67
2023/02/06 09:39:23;;;;;;;11.20;8.00;;;3.60;99.90;;;2.81;100.00;99808.47;4958256;28;20086;-67
2023/02/06 09:41:54;;;;;;;9.73;7.15;;;3.60;99.90;;;2.85;100.00;99805.09;4958437;28;20050;-68
2023/02/06 09:44:47;;;;;;;10.07;6.90;;;3.70;99.90;;;2.77;100.00;99801.50;4961559;28;20047;-67
2023/02/06 09:47:45;;;;;;;12.07;8.23;;;3.60;99.90;;;2.95;100.00;99799.38;4960088;28;20066;-67
2023/02/06 09:50:23;;;;;;;10.07;7.65;;;3.60;99.90;;;3.22;100.00;99801.72;4960976;28;20050;-67
2023/02/06 09:53:31;;;;;;;8.93;6.72;;;3.80;99.90;;;3.08;100.00;99796.28;4960698;28;20051;-67
2023/02/06 09:56:28;;;;;;;9.60;7.30;;;3.80;99.90;;;3.01;100.00;99789.28;4961410;28;20055;-67
2023/02/06 09:59:34;;;;;;;12.05;7.13;;;3.90;99.90;;;2.69;100.00;99785.91;4958785;28;20074;-67
2023/02/06 10:02:17;;;;;;;12.15;8.00;;;3.50;99.90;;;2.80;100.00;99788.75;4955762;28;20050;-68
2023/02/06 10:05:14;;;;;;;9.77;5.43;;;3.60;99.90;;;2.77;100.00;99796.38;4957465;28;20157;-67
2023/02/06 10:08:21;;;;;;;10.80;6.68;;;3.50;99.90;;;2.66;100.00;99788.41;4953954;28;20046;-67
2023/02/06 10:10:54;;;;;;;7.57;4.82;;;3.40;99.90;;;2.48;100.00;99782.00;4958484;28;20212;-67
2023/02/06 10:13:39;;;;;;;6.70;4.85;;;3.30;99.90;;;2.70;100.00;99783.41;4960929;28;20061;-67
2023/02/06 10:16:53;;;;;;;6.60;4.57;;;3.40;99.90;;;2.68;100.00;99784.19;4958235;28;20054;-67
2023/02/06 10:19:48;;;;;;;6.72;4.63;;;3.40;99.90;;;2.55;100.00;99782.16;4959192;28;20098;-68
2023/02/06 10:22:47;;;;;;;7.25;4.30;;;3.30;99.90;;;2.53;100.00;99773.56;4962165;28;20529;-66
2023/02/06 10:25:22;;;;;;;5.85;4.28;;;3.30;99.90;;;2.61;100.00;99772.06;4957347;28;20059;-67
2023/02/06 10:27:57;;;;;;;6.30;4.18;;;3.30;99.90;;;2.55;100.00;99771.91;4975468;28;20078;-67
2023/02/06 10:30:51;;;;;;;7.28;4.55;;;3.30;99.90;;;2.78;100.00;99763.06;4957690;28;20047;-67
2023/02/06 10:33:34;;;;;;;6.90;4.20;;;3.40;99.90;;;2.70;100.00;99749.19;4961785;28;20128;-68
2023/02/06 10:36:33;;;;;;;5.63;3.97;;;3.40;99.90;;;2.98;100.00;99748.13;4967151;28;20053;-67
2023/02/06 10:39:40;;;;;;;5.68;3.60;;;3.70;99.90;;;3.34;100.00;99734.38;4962945;28;20569;-67
2023/02/06 10:42:45;;;;;;;4.78;3.15;;;4.00;99.90;;;3.33;100.00;99723.25;4958202;28;20509;-67
2023/02/06 10:45:41;;;;;;;6.72;3.08;;;4.10;99.90;;;3.06;100.00;99699.56;4957496;28;20140;-67